createdAt,value
2023-05-06T00:00:48.679Z,89.40
2023-05-06T00:02:20.799Z,89.49
2023-05-06T00:03:53.138Z,89.47
2023-05-06T00:05:25.361Z,89.49
2023-05-06T00:06:57.780Z,89.76
2023-05-06T00:08:29.825Z,89.83
2023-05-06T00:11:40.186Z,89.68
2023-05-06T00:13:13.369Z,89.38
2023-05-06T00:14:45.582Z,89.07
2023-05-06T00:16:17.656Z,88.86
2023-05-06T00:17:49.852Z,89.04
2023-05-06T00:19:22.456Z,88.75
2023-05-06T00:20:54.503Z,89.13
2023-05-06T00:22:26.683Z,88.97
2023-05-06T00:23:58.730Z,89.19
2023-05-06T00:25:30.766Z,89.10
2023-05-06T00:27:02.945Z,89.41
2023-05-06T00:28:35.021Z,88.89
2023-05-06T00:30:07.685Z,88.60
2023-05-06T00:31:39.801Z,88.55
2023-05-06T00:33:11.918Z,88.57
2023-05-06T00:34:43.996Z,88.51
2023-05-06T00:36:16.075Z,88.57
2023-05-06T00:37:56.495Z,88.44
2023-05-06T00:39:28.571Z,88.44
2023-05-06T00:41:00.700Z,88.81
2023-05-06T00:42:34.742Z,88.57
2023-05-06T00:44:06.950Z,88.40
2023-05-06T00:45:39.125Z,88.68
2023-05-06T00:47:11.198Z,88.73
2023-05-06T00:48:44.364Z,88.83
2023-05-06T00:50:16.606Z,88.96
2023-05-06T00:51:49.060Z,89.46
2023-05-06T00:53:24.422Z,89.46
2023-05-06T00:54:57.100Z,89.46
2023-05-06T00:56:29.341Z,89.59
2023-05-06T00:58:01.502Z,89.36
2023-05-06T00:59:33.621Z,89.20
2023-05-06T01:01:06.084Z,89.30
2023-05-06T01:02:46.336Z,89.20
2023-05-06T01:04:19.101Z,89.41
2023-05-06T01:06:05.200Z,89.32
2023-05-06T01:07:50.366Z,89.52
2023-05-06T01:09:31.976Z,89.46
2023-05-06T01:11:42.466Z,89.42
2023-05-06T01:13:31.720Z,89.42
2023-05-06T01:15:10.177Z,89.49
2023-05-06T01:16:42.597Z,89.71
2023-05-06T01:18:17.796Z,89.77
2023-05-06T01:19:53.752Z,89.74
2023-05-06T01:21:35.125Z,89.75
2023-05-06T01:23:13.279Z,89.70
2023-05-06T01:24:47.122Z,89.94
2023-05-06T01:26:19.353Z,90.19
2023-05-06T01:27:51.472Z,90.18
2023-05-06T01:29:23.581Z,90.48
2023-05-06T01:31:01.815Z,90.34
2023-05-06T01:32:45.797Z,90.47
2023-05-06T01:34:40.859Z,90.36
2023-05-06T01:36:22.930Z,90.48
2023-05-06T01:38:33.289Z,90.87
2023-05-06T01:40:06.426Z,90.66
2023-05-06T01:41:41.808Z,90.66
2023-05-06T01:43:15.068Z,90.81
2023-05-06T01:44:48.710Z,90.83
2023-05-06T01:46:22.525Z,90.82
2023-05-06T01:47:54.971Z,90.69
2023-05-06T01:49:28.117Z,91.31
2023-05-06T01:51:00.280Z,91.24
2023-05-06T01:52:32.342Z,91.33
2023-05-06T01:54:05.082Z,91.28
2023-05-06T01:55:37.158Z,91.31
2023-05-06T01:57:09.268Z,91.54
2023-05-06T01:58:41.388Z,91.54
2023-05-06T02:00:13.754Z,91.42
2023-05-06T02:01:45.947Z,91.49
2023-05-06T02:03:18.235Z,91.45
2023-05-06T02:04:53.155Z,91.63
2023-05-06T02:06:25.115Z,91.37
2023-05-06T02:07:57.322Z,91.47
2023-05-06T02:09:29.648Z,91.43
2023-05-06T02:11:01.855Z,91.57
2023-05-06T02:12:33.992Z,91.64
2023-05-06T02:14:06.197Z,91.58
2023-05-06T02:15:38.527Z,91.48
2023-05-06T02:17:10.685Z,91.41
2023-05-06T02:18:42.794Z,91.65
2023-05-06T02:20:14.830Z,91.82
2023-05-06T02:21:46.944Z,91.67
2023-05-06T02:23:18.974Z,91.80
2023-05-06T02:24:51.083Z,91.67
2023-05-06T02:26:23.282Z,91.40
2023-05-06T02:27:55.355Z,91.30
2023-05-06T02:29:30.245Z,91.34
2023-05-06T02:31:02.529Z,91.61
2023-05-06T02:32:34.730Z,91.58
2023-05-06T02:34:07.227Z,91.60
2023-05-06T02:35:39.309Z,91.58
2023-05-06T02:37:11.376Z,91.71
2023-05-06T02:38:43.431Z,91.73
2023-05-06T02:40:15.550Z,91.69
2023-05-06T02:41:47.590Z,91.80
2023-05-06T02:43:19.707Z,91.64
2023-05-06T02:44:51.886Z,91.72
2023-05-06T02:46:24.035Z,91.93
2023-05-06T02:47:56.161Z,92.06
2023-05-06T02:49:28.389Z,92.00
2023-05-06T02:51:00.537Z,92.34
2023-05-06T02:52:33.816Z,92.39
2023-05-06T02:54:06.209Z,92.15
2023-05-06T02:55:38.233Z,92.07
2023-05-06T02:57:10.253Z,92.19
2023-05-06T02:58:42.317Z,92.13
2023-05-06T03:00:15.886Z,92.24
2023-05-06T03:01:48.227Z,92.21
2023-05-06T03:03:20.341Z,92.42
2023-05-06T03:04:52.527Z,92.34
2023-05-06T03:06:24.636Z,92.35
2023-05-06T03:07:56.952Z,92.33
2023-05-06T03:09:29.065Z,92.30
2023-05-06T03:11:01.182Z,92.44
2023-05-06T03:12:33.408Z,92.54
2023-05-06T03:14:05.615Z,92.53
2023-05-06T03:15:37.883Z,92.71
2023-05-06T03:17:10.053Z,92.72
2023-05-06T03:18:42.210Z,92.86
2023-05-06T03:20:14.382Z,92.88
2023-05-06T03:21:46.510Z,92.95
2023-05-06T03:23:18.713Z,93.13
2023-05-06T03:24:50.939Z,93.31
2023-05-06T03:26:23.098Z,93.36
2023-05-06T03:27:55.499Z,93.51
2023-05-06T03:29:27.772Z,93.47
2023-05-06T03:31:00.000Z,93.26
2023-05-06T03:32:32.417Z,93.43
2023-05-06T03:34:04.583Z,93.33
2023-05-06T03:35:36.880Z,93.52
2023-05-06T03:37:09.116Z,93.55
2023-05-06T03:38:41.870Z,93.54
2023-05-06T03:40:14.233Z,93.72
2023-05-06T03:41:46.398Z,93.85
2023-05-06T03:43:18.674Z,93.82
2023-05-06T03:44:50.809Z,94.10
2023-05-06T03:46:22.904Z,94.09
2023-05-06T03:47:55.194Z,94.07
2023-05-06T03:49:27.498Z,94.08
2023-05-06T03:50:59.613Z,94.32
2023-05-06T03:52:31.749Z,94.26
2023-05-06T03:54:04.138Z,94.12
2023-05-06T03:55:36.273Z,94.23
2023-05-06T03:57:08.519Z,94.45
2023-05-06T03:58:40.731Z,94.34
2023-05-06T04:00:13.315Z,94.51
2023-05-06T04:01:45.433Z,94.70
2023-05-06T04:03:17.697Z,94.70
2023-05-06T04:04:49.831Z,94.67
2023-05-06T04:06:21.958Z,94.80
2023-05-06T04:07:54.811Z,94.84
2023-05-06T04:09:29.991Z,94.81
2023-05-06T04:11:09.656Z,94.86
2023-05-06T04:12:41.823Z,94.95
2023-05-06T04:14:13.897Z,95.15
2023-05-06T04:15:47.097Z,95.13
2023-05-06T04:17:19.411Z,95.12
2023-05-06T04:18:52.006Z,95.29
2023-05-06T04:20:24.205Z,95.16
2023-05-06T04:21:56.298Z,95.24
2023-05-06T04:23:28.470Z,95.26
2023-05-06T04:25:03.589Z,95.12
2023-05-06T04:26:35.812Z,95.28
2023-05-06T04:28:07.891Z,95.11
2023-05-06T04:29:40.006Z,95.11
2023-05-06T04:31:12.680Z,95.14
2023-05-06T04:32:44.928Z,95.07
2023-05-06T04:34:17.486Z,95.15
2023-05-06T04:35:56.985Z,94.83
2023-05-06T04:37:29.476Z,94.91
2023-05-06T04:39:01.583Z,94.80
2023-05-06T04:40:36.966Z,94.86
2023-05-06T04:42:09.031Z,94.76
2023-05-06T04:43:41.910Z,95.16
2023-05-06T04:45:14.140Z,95.17
2023-05-06T04:46:46.601Z,95.18
2023-05-06T04:48:19.356Z,95.35
2023-05-06T04:49:51.501Z,95.13
2023-05-06T04:51:23.632Z,94.98
2023-05-06T04:52:55.708Z,95.03
2023-05-06T04:54:28.041Z,94.77
2023-05-06T04:56:00.144Z,95.00
2023-05-06T04:57:32.938Z,94.85
2023-05-06T04:59:05.038Z,94.83
2023-05-06T05:00:37.147Z,94.75
2023-05-06T05:03:43.757Z,94.70
2023-05-06T05:05:16.095Z,94.40
2023-05-06T05:06:48.163Z,94.28
2023-05-06T05:08:20.219Z,94.27
2023-05-06T05:09:52.312Z,93.99
2023-05-06T05:11:24.489Z,93.83
2023-05-06T05:12:56.726Z,93.86
2023-05-06T05:14:28.933Z,93.79
2023-05-06T05:16:01.396Z,93.78
2023-05-06T05:17:34.167Z,93.87
2023-05-06T05:19:09.119Z,93.96
2023-05-06T05:20:41.632Z,93.63
2023-05-06T05:22:13.681Z,93.55
2023-05-06T05:23:46.057Z,93.69
2023-05-06T05:25:18.214Z,93.60
2023-05-06T05:26:50.526Z,93.51
2023-05-06T05:28:22.585Z,93.17
2023-05-06T05:29:54.722Z,92.97
2023-05-06T05:31:26.818Z,92.75
2023-05-06T05:32:59.005Z,92.85
2023-05-06T05:34:31.332Z,92.93
2023-05-06T05:36:04.655Z,93.16
2023-05-06T05:37:36.985Z,92.95
2023-05-06T05:39:09.746Z,92.87
2023-05-06T05:40:42.531Z,92.95
2023-05-06T05:42:14.590Z,92.96
2023-05-06T05:43:46.728Z,93.06
2023-05-06T05:45:19.050Z,92.75
2023-05-06T05:46:51.454Z,92.56
2023-05-06T05:48:23.741Z,92.30
2023-05-06T05:49:55.851Z,92.25
2023-05-06T05:51:27.990Z,92.04
2023-05-06T05:53:00.148Z,91.84
2023-05-06T05:54:32.236Z,91.37
2023-05-06T05:56:04.428Z,91.41
2023-05-06T05:57:36.508Z,91.43
2023-05-06T05:59:08.769Z,91.24
2023-05-06T06:00:41.234Z,91.33
2023-05-06T06:02:13.442Z,91.05
2023-05-06T06:03:46.295Z,90.88
2023-05-06T06:05:18.611Z,90.91
2023-05-06T06:06:51.138Z,90.85
2023-05-06T06:08:23.230Z,90.69
2023-05-06T06:09:55.395Z,90.84
2023-05-06T06:11:28.129Z,90.55
2023-05-06T06:13:00.303Z,90.29
2023-05-06T06:14:32.403Z,90.12
2023-05-06T06:16:05.263Z,90.17
2023-05-06T06:17:37.472Z,90.39
2023-05-06T06:19:09.759Z,90.36
2023-05-06T06:20:42.156Z,90.16
2023-05-06T06:22:14.418Z,90.20
2023-05-06T06:23:46.513Z,89.87
2023-05-06T06:25:18.789Z,89.47
2023-05-06T06:26:51.008Z,89.21
2023-05-06T06:28:23.231Z,89.14
2023-05-06T06:29:55.377Z,88.85
2023-05-06T06:31:28.548Z,88.63
2023-05-06T06:33:01.866Z,88.12
2023-05-06T06:34:34.317Z,87.71
2023-05-06T06:37:39.106Z,87.92
2023-05-06T06:39:13.076Z,87.59
2023-05-06T06:40:45.159Z,87.46
2023-05-06T06:42:17.312Z,87.26
2023-05-06T06:43:49.597Z,87.08
2023-05-06T06:45:22.698Z,87.00
2023-05-06T06:46:54.858Z,87.07
2023-05-06T06:48:26.970Z,86.96
2023-05-06T06:49:59.030Z,86.50
2023-05-06T06:51:32.196Z,86.11
2023-05-06T06:53:06.253Z,86.21
2023-05-06T06:54:39.393Z,86.09
2023-05-06T06:56:14.737Z,86.07
2023-05-06T06:57:46.844Z,86.04
2023-05-06T06:59:18.911Z,85.94
2023-05-06T07:00:51.324Z,85.69
2023-05-06T07:02:23.740Z,85.86
2023-05-06T07:03:56.051Z,85.96
2023-05-06T07:05:28.351Z,85.80
2023-05-06T07:07:00.534Z,86.11
2023-05-06T07:08:32.670Z,85.78
2023-05-06T07:10:05.600Z,85.28
2023-05-06T07:11:37.744Z,85.27
2023-05-06T07:13:09.906Z,85.02
2023-05-06T07:14:42.125Z,84.83
2023-05-06T07:16:14.296Z,84.84
2023-05-06T07:17:46.472Z,85.13
2023-05-06T07:19:18.685Z,84.78
2023-05-06T07:20:50.898Z,84.46
2023-05-06T07:22:23.052Z,84.46
2023-05-06T07:23:55.382Z,84.70
2023-05-06T07:25:28.474Z,85.07
2023-05-06T07:27:01.902Z,85.38
2023-05-06T07:28:33.796Z,85.14
2023-05-06T07:30:06.642Z,84.65
2023-05-06T08:11:12.874Z,78.13
2023-05-06T08:12:45.206Z,80.21
2023-05-06T08:14:17.488Z,80.11
2023-05-06T08:15:49.799Z,79.34
2023-05-06T08:17:22.039Z,78.48
2023-05-06T08:18:54.266Z,77.94
2023-05-06T08:20:26.686Z,77.77
2023-05-06T08:21:58.833Z,77.69
2023-05-06T08:23:32.309Z,77.54
2023-05-06T08:25:04.906Z,78.07
2023-05-06T08:26:37.496Z,78.20
2023-05-06T08:28:09.818Z,78.61
2023-05-06T08:29:42.041Z,78.59
2023-05-06T08:31:14.353Z,77.40
2023-05-06T08:32:47.227Z,74.82
2023-05-06T08:34:21.608Z,74.76
2023-05-06T08:35:53.919Z,74.72
2023-05-06T08:37:26.277Z,74.22
2023-05-06T08:38:58.696Z,74.62
2023-05-06T08:40:34.025Z,74.99
2023-05-06T08:42:06.467Z,75.01
2023-05-06T08:43:43.104Z,73.51
2023-05-06T08:45:17.314Z,73.34
2023-05-06T08:46:52.515Z,73.59
2023-05-06T08:48:27.202Z,73.30
2023-05-06T08:49:59.568Z,73.37
2023-05-06T08:51:32.948Z,72.33
2023-05-06T08:53:05.016Z,72.09
2023-05-06T08:54:37.516Z,71.78
2023-05-06T08:56:10.965Z,71.15
2023-05-06T08:57:43.195Z,68.22
2023-05-06T08:59:15.914Z,69.44
2023-05-06T09:00:48.977Z,70.02
2023-05-06T09:02:22.776Z,70.07
2023-05-06T09:03:56.341Z,69.82
2023-05-06T09:05:30.205Z,69.63
2023-05-06T09:07:02.344Z,68.81
2023-05-06T09:08:34.652Z,68.36
2023-05-06T09:10:14.258Z,68.57
2023-05-06T09:11:46.709Z,68.34
2023-05-06T09:13:22.687Z,66.79
2023-05-06T09:14:56.452Z,68.00
2023-05-06T09:16:32.728Z,67.70
2023-05-06T09:18:05.088Z,67.61
2023-05-06T09:19:38.881Z,67.28
2023-05-06T09:21:11.085Z,65.47
2023-05-06T09:22:43.816Z,66.46
2023-05-06T09:24:17.096Z,65.25
2023-05-06T09:25:50.262Z,63.47
2023-05-06T09:27:24.326Z,64.19
2023-05-06T09:28:57.494Z,64.62
2023-05-06T09:30:30.024Z,65.49
2023-05-06T09:32:06.384Z,61.84
2023-05-06T09:33:38.867Z,63.10
2023-05-06T09:35:12.095Z,64.25
2023-05-06T09:36:45.268Z,69.21
2023-05-06T09:38:17.557Z,69.08
2023-05-06T09:39:50.729Z,67.60
2023-05-06T09:41:25.764Z,68.52
2023-05-06T09:42:58.546Z,67.10
2023-05-06T09:44:31.296Z,67.52
2023-05-06T09:46:06.489Z,65.64
2023-05-06T09:47:38.872Z,64.58
2023-05-06T09:49:11.196Z,63.10
2023-05-06T09:50:44.825Z,64.97
2023-05-06T09:52:17.676Z,65.00
2023-05-06T09:53:49.946Z,65.18
2023-05-06T09:55:23.388Z,64.15
2023-05-06T09:56:56.062Z,69.18
2023-05-06T09:58:28.663Z,67.65
2023-05-06T10:00:01.116Z,65.34
2023-05-06T10:01:37.642Z,63.58
2023-05-06T10:03:10.489Z,62.71
2023-05-06T10:04:43.726Z,61.75
2023-05-06T10:06:16.347Z,61.46
2023-05-06T10:07:49.168Z,60.12
2023-05-06T10:09:24.573Z,61.42
2023-05-06T10:10:57.518Z,60.99
2023-05-06T10:12:30.604Z,61.04
2023-05-06T10:14:03.240Z,63.57
2023-05-06T10:15:35.560Z,63.72
2023-05-06T10:17:10.330Z,64.31
2023-05-06T10:18:42.966Z,61.13
2023-05-06T10:20:15.726Z,62.46
2023-05-06T10:21:53.966Z,63.45
2023-05-06T10:23:34.988Z,61.86
2023-05-06T10:25:19.848Z,63.53
2023-05-06T10:26:54.453Z,64.26
2023-05-06T10:28:31.248Z,62.38
2023-05-06T10:30:04.269Z,59.83
2023-05-06T10:31:39.399Z,63.30
2023-05-06T10:33:12.314Z,62.29
2023-05-06T10:34:52.199Z,63.32
2023-05-06T10:36:29.374Z,58.01
2023-05-06T10:38:04.473Z,59.52
2023-05-06T10:39:36.715Z,54.97
2023-05-06T10:41:09.550Z,54.69
2023-05-06T10:42:41.981Z,63.56
2023-05-06T10:44:14.611Z,59.77
2023-05-06T10:46:13.108Z,58.47
2023-05-06T10:47:57.863Z,62.57
2023-05-06T10:49:30.296Z,60.66
2023-05-06T10:51:18.048Z,57.37
2023-05-06T10:52:57.508Z,58.08
2023-05-06T10:54:29.695Z,58.41
2023-05-06T10:56:09.488Z,58.06
2023-05-06T10:57:42.320Z,60.27
2023-05-06T10:59:14.815Z,60.48
2023-05-06T11:00:57.574Z,55.98
2023-05-06T11:02:31.478Z,57.24
2023-05-06T11:04:08.850Z,59.88
2023-05-06T11:05:49.587Z,59.91
2023-05-06T11:07:25.167Z,57.17
2023-05-06T11:09:01.943Z,58.79
2023-05-06T11:10:34.481Z,57.91
2023-05-06T11:12:08.143Z,55.55
2023-05-06T11:13:40.378Z,56.82
2023-05-06T11:15:41.680Z,54.44
2023-05-06T11:17:31.782Z,53.99
2023-05-06T11:19:04.408Z,55.91
2023-05-06T11:20:36.758Z,56.62
2023-05-06T11:22:09.021Z,56.23
2023-05-06T11:23:49.934Z,56.36
2023-05-06T11:25:44.085Z,57.31
2023-05-06T11:27:21.282Z,57.30
2023-05-06T11:28:53.738Z,56.54
2023-05-06T11:30:26.247Z,56.34
2023-05-06T11:32:01.719Z,59.98
2023-05-06T11:33:35.126Z,58.85
2023-05-06T11:35:07.925Z,58.74
2023-05-06T11:37:07.339Z,58.50
2023-05-06T11:38:44.019Z,58.90
2023-05-06T11:40:16.512Z,59.98
2023-05-06T11:41:48.859Z,54.95
2023-05-06T11:43:21.160Z,58.80
2023-05-06T11:44:56.925Z,60.58
2023-05-06T11:46:32.554Z,58.60
2023-05-06T11:48:04.933Z,56.21
2023-05-06T11:49:41.930Z,58.90
2023-05-06T11:51:14.289Z,56.92
2023-05-06T11:52:46.353Z,54.29
2023-05-06T11:54:20.964Z,53.99
2023-05-06T11:55:54.391Z,53.82
2023-05-06T11:57:26.454Z,52.72
2023-05-06T11:58:58.722Z,56.04
2023-05-06T12:00:30.913Z,58.86
2023-05-06T12:02:08.138Z,57.34
2023-05-06T12:03:40.594Z,55.88
2023-05-06T12:05:14.225Z,55.42
2023-05-06T12:06:47.150Z,54.46
2023-05-06T12:08:29.397Z,55.20
2023-05-06T12:10:04.557Z,53.88
2023-05-06T12:11:37.477Z,50.44
2023-05-06T12:13:09.874Z,49.93
2023-05-06T12:14:44.784Z,52.30
2023-05-06T12:16:17.302Z,53.06
2023-05-06T12:17:49.654Z,56.00
2023-05-06T12:19:22.693Z,54.42
2023-05-06T12:20:58.129Z,51.89
2023-05-06T12:22:30.292Z,52.76
2023-05-06T12:24:02.475Z,51.96
2023-05-06T12:25:34.690Z,53.81
2023-05-06T12:27:07.046Z,53.96
2023-05-06T12:28:43.561Z,53.61
2023-05-06T12:30:16.060Z,53.67
2023-05-06T12:31:48.783Z,53.81
2023-05-06T12:33:21.365Z,51.69
2023-05-06T12:34:53.552Z,48.50
2023-05-06T12:36:25.846Z,49.56
2023-05-06T12:38:09.936Z,53.58
2023-05-06T12:39:42.473Z,54.59
2023-05-06T12:41:14.754Z,56.24
2023-05-06T12:42:56.324Z,55.02
2023-05-06T12:44:39.410Z,50.31
2023-05-06T12:46:12.874Z,51.12
2023-05-06T12:47:58.999Z,51.17
2023-05-06T12:49:50.207Z,50.54
2023-05-06T12:51:22.755Z,54.93
2023-05-06T12:52:54.983Z,52.87
2023-05-06T12:54:31.186Z,56.39
2023-05-06T12:56:03.511Z,56.39
2023-05-06T12:57:36.622Z,54.58
2023-05-06T12:59:08.993Z,52.19
2023-05-06T13:00:41.228Z,51.02
2023-05-06T13:02:13.909Z,51.13
2023-05-06T13:03:46.515Z,56.95
2023-05-06T13:05:21.082Z,52.86
2023-05-06T13:06:53.581Z,51.42
2023-05-06T13:08:25.876Z,53.49
2023-05-06T13:09:58.053Z,53.59
2023-05-06T13:11:30.232Z,55.85
2023-05-06T13:13:02.648Z,56.42
2023-05-06T13:14:36.466Z,56.70
2023-05-06T13:16:10.821Z,57.98
2023-05-06T13:17:43.131Z,57.97
2023-05-06T13:19:31.002Z,52.48
2023-05-06T13:21:04.417Z,56.91
2023-05-06T13:22:50.686Z,57.51
2023-05-06T13:24:26.441Z,58.20
2023-05-06T13:26:04.118Z,57.96
2023-05-06T13:27:37.227Z,58.27
2023-05-06T13:29:09.562Z,59.01
2023-05-06T13:30:41.760Z,58.90
2023-05-06T13:32:14.075Z,59.46
2023-05-06T13:33:46.720Z,59.13
2023-05-06T13:35:19.081Z,58.80
2023-05-06T13:36:51.467Z,56.89
2023-05-06T13:38:23.819Z,59.21
2023-05-06T13:39:56.078Z,59.06
2023-05-06T13:41:28.372Z,58.34
2023-05-06T13:43:00.503Z,60.70
2023-05-06T13:44:33.276Z,60.47
2023-05-06T13:46:05.560Z,58.39
2023-05-06T13:47:37.934Z,54.32
2023-05-06T13:49:10.186Z,57.44
2023-05-06T13:50:43.488Z,55.78
2023-05-06T13:52:15.481Z,57.60
2023-05-06T13:53:47.958Z,59.37
2023-05-06T13:55:20.133Z,57.33
2023-05-06T13:56:52.294Z,52.58
2023-05-06T13:58:24.502Z,56.93
2023-05-06T13:59:57.022Z,56.62
2023-05-06T14:01:29.429Z,56.63
2023-05-06T14:03:01.763Z,57.06
2023-05-06T14:04:34.115Z,56.41
2023-05-06T14:06:06.657Z,57.52
2023-05-06T14:07:40.443Z,55.25
2023-05-06T14:09:13.062Z,56.44
2023-05-06T14:10:45.758Z,57.79
2023-05-06T14:12:17.997Z,57.22
2023-05-06T14:13:50.239Z,57.12
2023-05-06T14:15:22.564Z,56.16
2023-05-06T14:16:56.049Z,56.54
2023-05-06T14:18:28.634Z,57.57
2023-05-06T14:20:00.837Z,57.47
2023-05-06T14:21:33.075Z,58.01
2023-05-06T14:23:07.656Z,57.52
2023-05-06T14:24:39.749Z,54.94
2023-05-06T14:26:11.981Z,58.08
2023-05-06T14:27:45.828Z,57.18
2023-05-06T14:29:18.173Z,57.46
2023-05-06T14:30:51.511Z,56.92
2023-05-06T14:32:23.767Z,55.81
2023-05-06T14:33:56.688Z,57.11
2023-05-06T14:35:29.033Z,55.76
2023-05-06T14:37:01.369Z,57.75
2023-05-06T14:38:34.864Z,57.07
2023-05-06T14:40:08.265Z,56.86
2023-05-06T14:41:40.578Z,56.39
2023-05-06T14:43:12.750Z,56.53
2023-05-06T14:44:49.010Z,57.18
2023-05-06T14:46:22.176Z,56.74
2023-05-06T14:47:54.527Z,54.93
2023-05-06T14:49:26.679Z,52.91
2023-05-06T14:50:58.783Z,54.05
2023-05-06T14:52:31.216Z,52.70
2023-05-06T14:54:03.521Z,54.02
2023-05-06T14:55:35.972Z,54.08
2023-05-06T14:57:09.738Z,53.43
2023-05-06T14:58:42.258Z,53.73
2023-05-06T15:00:15.169Z,54.58
2023-05-06T15:01:47.419Z,53.90
2023-05-06T15:03:19.757Z,53.25
2023-05-06T15:04:52.272Z,53.17
2023-05-06T15:06:24.642Z,51.98
2023-05-06T15:07:56.734Z,51.77
2023-05-06T15:09:29.032Z,49.11
2023-05-06T15:11:03.658Z,51.13
2023-05-06T15:12:37.669Z,50.04
2023-05-06T15:14:10.073Z,50.40
2023-05-06T15:15:46.126Z,51.13
2023-05-06T15:17:18.346Z,49.61
2023-05-06T15:18:50.417Z,50.58
2023-05-06T15:20:24.222Z,50.98
2023-05-06T15:21:56.654Z,51.35
2023-05-06T15:23:28.814Z,51.30
2023-05-06T15:25:01.981Z,50.81
2023-05-06T15:26:34.112Z,50.59
2023-05-06T15:28:06.392Z,50.05
2023-05-06T15:29:39.579Z,47.97
2023-05-06T15:31:11.843Z,48.57
2023-05-06T15:32:44.039Z,50.16
2023-05-06T15:34:16.370Z,49.80
2023-05-06T15:35:48.488Z,50.04
2023-05-06T15:37:22.534Z,51.79
2023-05-06T15:39:00.420Z,50.71
2023-05-06T15:40:32.862Z,50.55
2023-05-06T15:42:05.231Z,50.69
2023-05-06T15:43:38.763Z,51.03
2023-05-06T15:45:12.624Z,51.53
2023-05-06T15:46:44.955Z,51.07
2023-05-06T15:48:17.387Z,50.54
2023-05-06T15:49:54.836Z,51.34
2023-05-06T15:51:27.673Z,51.74
2023-05-06T15:53:00.181Z,52.33
2023-05-06T15:54:33.609Z,51.10
2023-05-06T15:56:17.784Z,52.16
2023-05-06T15:57:50.954Z,51.59
2023-05-06T15:59:23.457Z,51.97
2023-05-06T16:00:55.594Z,53.65
2023-05-06T16:02:28.112Z,52.11
2023-05-06T16:04:00.391Z,51.62
2023-05-06T16:05:32.630Z,52.35
2023-05-06T16:07:04.714Z,52.00
2023-05-06T16:08:37.977Z,52.33
2023-05-06T16:10:10.071Z,51.26
2023-05-06T16:11:42.312Z,52.26
2023-05-06T16:13:14.477Z,52.15
2023-05-06T16:14:46.633Z,52.76
2023-05-06T16:16:18.789Z,52.79
2023-05-06T16:17:50.933Z,52.86
2023-05-06T16:19:23.286Z,52.93
2023-05-06T16:20:55.362Z,51.92
2023-05-06T16:22:27.532Z,51.16
2023-05-06T16:24:01.970Z,50.37
2023-05-06T16:25:34.526Z,51.00
2023-05-06T16:27:06.900Z,51.25
2023-05-06T16:28:40.110Z,50.90
2023-05-06T16:30:13.067Z,51.64
2023-05-06T16:31:45.309Z,49.96
2023-05-06T16:33:17.680Z,51.73
2023-05-06T16:34:49.829Z,52.21
2023-05-06T16:36:22.937Z,48.39
2023-05-06T16:37:55.126Z,49.97
2023-05-06T16:39:27.259Z,47.89
2023-05-06T16:40:59.402Z,49.02
2023-05-06T16:42:31.576Z,48.22
2023-05-06T16:44:03.899Z,50.31
2023-05-06T16:45:36.263Z,50.06
2023-05-06T16:47:08.539Z,49.82
2023-05-06T16:48:40.889Z,49.97
2023-05-06T16:50:13.501Z,49.43
2023-05-06T16:51:45.760Z,52.19
2023-05-06T16:53:18.108Z,53.14
2023-05-06T16:54:51.859Z,54.36
2023-05-06T16:56:24.470Z,53.80
2023-05-06T16:58:00.956Z,53.81
2023-05-06T16:59:33.350Z,54.34
2023-05-06T17:01:08.405Z,54.67
2023-05-06T17:02:41.014Z,55.37
2023-05-06T17:04:14.149Z,55.65
2023-05-06T17:05:47.259Z,57.40
2023-05-06T17:07:19.354Z,57.54
2023-05-06T17:08:51.604Z,57.84
2023-05-06T17:10:25.021Z,58.05
2023-05-06T17:11:57.147Z,57.61
2023-05-06T17:13:29.256Z,58.13
2023-05-06T17:15:01.804Z,57.80
2023-05-06T17:16:33.935Z,58.31
2023-05-06T17:18:06.314Z,58.86
2023-05-06T17:19:38.460Z,58.73
2023-05-06T17:21:10.824Z,59.63
2023-05-06T17:22:42.892Z,59.36
2023-05-06T17:24:15.083Z,59.93
2023-05-06T17:25:47.536Z,59.97
2023-05-06T17:27:19.654Z,60.00
2023-05-06T17:28:51.880Z,60.39
2023-05-06T17:30:24.287Z,61.21
2023-05-06T17:31:56.451Z,61.82
2023-05-06T17:33:28.657Z,63.23
2023-05-06T17:35:00.796Z,64.57
2023-05-06T17:36:33.253Z,65.50
2023-05-06T17:38:05.437Z,66.75
2023-05-06T17:39:38.847Z,66.31
2023-05-06T17:41:11.263Z,66.97
2023-05-06T17:42:43.380Z,67.50
2023-05-06T17:44:17.984Z,67.57
2023-05-06T17:45:50.220Z,67.46
2023-05-06T17:47:26.942Z,68.05
2023-05-06T17:49:13.371Z,68.63
2023-05-06T17:50:45.497Z,68.82
2023-05-06T17:52:18.285Z,67.78
2023-05-06T17:53:50.463Z,67.32
2023-05-06T17:55:23.094Z,69.55
2023-05-06T17:56:55.440Z,70.49
2023-05-06T17:58:29.615Z,70.76
2023-05-06T18:00:01.818Z,71.26
2023-05-06T18:04:17.212Z,70.51
2023-05-06T18:08:20.225Z,71.23
2023-05-06T18:09:52.680Z,70.60
2023-05-06T18:11:25.002Z,72.19
2023-05-06T18:12:58.070Z,73.03
2023-05-06T18:14:30.297Z,73.78
2023-05-06T18:16:03.732Z,74.30
2023-05-06T18:17:36.220Z,74.59
2023-05-06T18:19:08.434Z,74.31
2023-05-06T18:20:41.178Z,74.15
2023-05-06T18:22:13.509Z,74.01
2023-05-06T18:23:45.973Z,73.74
2023-05-06T18:25:18.079Z,73.48
2023-05-06T18:26:50.160Z,74.07
2023-05-06T18:28:22.437Z,75.34
2023-05-06T18:29:54.638Z,75.79
2023-05-06T18:31:26.856Z,76.23
2023-05-06T18:32:59.252Z,76.63
2023-05-06T18:34:31.578Z,76.88
2023-05-06T18:36:04.123Z,76.33
2023-05-06T18:37:36.372Z,76.60
2023-05-06T18:39:08.666Z,75.91
2023-05-06T18:40:41.505Z,76.12
2023-05-06T18:42:13.654Z,77.39
2023-05-06T18:43:45.850Z,77.73
2023-05-06T18:45:18.094Z,78.25
2023-05-06T18:46:50.190Z,78.56
2023-05-06T18:48:22.520Z,79.42
2023-05-06T18:49:54.633Z,79.14
2023-05-06T18:51:27.921Z,78.49
2023-05-06T18:53:00.012Z,78.34
2023-05-06T18:54:32.247Z,78.47
2023-05-06T18:56:05.066Z,78.76
2023-05-06T18:57:37.581Z,79.03
2023-05-06T18:59:10.169Z,79.52
2023-05-06T19:00:42.455Z,79.73
2023-05-06T19:02:14.614Z,79.85
2023-05-06T19:03:47.262Z,80.13
2023-05-06T19:05:19.543Z,80.00
2023-05-06T19:06:52.243Z,80.16
2023-05-06T19:08:24.415Z,80.35
2023-05-06T19:09:56.648Z,80.42
2023-05-06T19:11:28.864Z,80.62
2023-05-06T19:13:01.166Z,80.49
2023-05-06T19:14:35.054Z,80.69
2023-05-06T19:16:07.475Z,81.21
2023-05-06T19:17:39.662Z,81.22
2023-05-06T19:19:12.041Z,81.34
2023-05-06T19:22:16.785Z,81.53
2023-05-06T19:23:48.945Z,81.45
2023-05-06T19:25:21.314Z,81.57
2023-05-06T19:26:53.434Z,81.48
2023-05-06T19:28:25.555Z,81.60
2023-05-06T19:29:57.857Z,81.76
2023-05-06T19:31:30.161Z,81.57
2023-05-06T19:33:02.960Z,81.95
2023-05-06T19:34:35.213Z,82.26
2023-05-06T19:36:07.523Z,82.41
2023-05-06T19:37:39.834Z,82.54
2023-05-06T19:39:12.008Z,82.70
2023-05-06T19:40:44.140Z,82.91
2023-05-06T19:42:16.237Z,83.02
2023-05-06T19:43:48.379Z,83.32
2023-05-06T19:45:20.779Z,83.45
2023-05-06T19:46:54.645Z,83.31
2023-05-06T19:48:26.902Z,83.54
2023-05-06T19:49:59.050Z,83.36
2023-05-06T19:51:31.767Z,83.08
2023-05-06T19:53:03.987Z,83.60
2023-05-06T19:54:36.021Z,83.60
2023-05-06T19:56:12.839Z,83.75
2023-05-06T19:57:45.311Z,83.90
2023-05-06T19:59:18.019Z,84.14
2023-05-06T20:00:50.092Z,84.13
2023-05-06T20:02:22.316Z,84.02
2023-05-06T20:03:55.606Z,84.08
2023-05-06T20:05:31.950Z,84.12
2023-05-06T20:07:04.216Z,83.88
2023-05-06T20:08:36.389Z,84.08
2023-05-06T20:10:10.423Z,83.98
2023-05-06T20:11:42.608Z,84.05
2023-05-06T20:13:14.762Z,83.97
2023-05-06T20:14:46.834Z,84.21
2023-05-06T20:16:19.408Z,84.07
2023-05-06T20:17:51.584Z,84.17
2023-05-06T20:19:29.706Z,84.49
2023-05-06T20:21:01.808Z,84.29
2023-05-06T20:22:33.970Z,84.27
2023-05-06T20:24:07.576Z,84.54
2023-05-06T20:25:39.730Z,84.54
2023-05-06T20:27:11.842Z,84.55
2023-05-06T20:28:43.954Z,84.51
2023-05-06T20:30:16.223Z,84.93
2023-05-06T20:31:48.658Z,84.82
2023-05-06T20:33:20.925Z,84.86
2023-05-06T20:34:53.613Z,84.86
2023-05-06T20:36:27.220Z,84.90
2023-05-06T20:37:59.377Z,85.19
2023-05-06T20:39:31.545Z,84.67
2023-05-06T20:42:35.349Z,84.90
2023-05-06T20:44:07.952Z,84.93
2023-05-06T20:45:40.148Z,85.13
2023-05-06T20:47:12.892Z,85.11
2023-05-06T20:48:44.972Z,85.16
2023-05-06T20:50:17.577Z,85.21
2023-05-06T20:51:49.701Z,84.87
2023-05-06T20:53:22.496Z,85.64
2023-05-06T20:54:54.553Z,85.27
2023-05-06T20:56:26.907Z,85.31